CLSCHEHALIS-CENTRALIA
METARs for airports near CLS, sorted by distance:
N 0 nm 177' KCLS 161115Z 17006KT 10SM BKN046 OVC065 12/10 A3009
N 17 nm 207' KOLM 161054Z 20007KT 10SM BKN045 OVC060 13/08 A3007
NE 29 nm 301' KGRF 161058Z 00000KT 10SM BKN046 OVC055 13/08 A3006
S 33 nm 20' KKLS 161056Z 14009KT 10SM OVC050 10/09 A3013
N 34 nm 272' KSHN 161053Z 00000KT 10SM OVC035 12/11 A3004
NE 34 nm 322' KTCM 161058Z 19004KT 10SM FEW044 BKN060 OVC080 13/08 A3007
NE 38 nm 537' KPLU 161115Z 00000KT 10SM OVC055 15/07 A3007
NE 39 nm 294' KTIW 161053Z 00000KT 10SM FEW050 OVC060 12/10 A3007
NW 42 nm 17' KHQM 161117Z 18012KT 10SM SCT020 SCT026 OVC033 15/11 A3004
SW 48 nm 14' KAST 161120Z 15005KT 10SM BKN027 OVC039 14/09 A3006
N 49 nm 444' KPWT 161056Z 22003KT 10SM OVC033 11/11 A3007
NE 53 nm 432' KSEA 161053Z 15005KT 10SM FEW042 FEW060 OVC100 12/09 A3007
S 54 nm 58' KSPB 161053Z 00000KT 10SM OVC004 09/08 A3013
NE 58 nm 32' KRNT 161053Z 00000KT 10SM BKN050 OVC110 13/09 A3006
NE 58 nm 21' KBFI 161053Z 14006KT 10SM BKN070 OVC110 13/09 A3007
S 64 nm 28' KVUO 161053Z 00000KT 10SM CLR 09/08 A3014
S 67 nm 30' KPDX 161053Z 15005KT 10SM CLR 09/07 A3014
S 68 nm 207' KHIO 161053Z 00000KT 1/4SM FG VV002 08/08 A3013
S 71 nm 38' KTTD 161116Z 09003KT 10SM SCT002 08/06 A3014
N 79 nm 606' KPAE 161053Z 15010KT 10SM -RA SCT038 BKN065 OVC085 12/09 A3006
SW 83 nm 39' KTMK 161115Z 00000KT 10SM OVC048 11/10 A3012
S 86 nm 199' KUAO 161121Z 00000KT 3SM BR CLR 07/06 A3014
N 89 nm 291' KCLM 161115Z 00000KT 5SM -RA BR FEW007 BKN095 BKN110 10/09 A2993
S 89 nm 162' KMMV 161119Z 00000KT 1/4SM FG VV002 07/07 A3013
N 89 nm 13' KNOW 161115Z 25005KT 7SM SCT006 SCT075 BKN100 10/10 A2993
N 95 nm 141' KAWO 161056Z 12010G19KT 10SM -RA FEW055 OVC090 12/09 A3005
SE 98 nm 246' KDLS 161053Z 00000KT 10SM CLR 08/06 A3014
NW 99 nm 193' KUIL 161053Z 16009G20KT 120V200 2SM -RA BR BKN007 OVC012 12/12 A2993
TAFs for airports near CLS, sorted by distance:
N 17 nm 207' KOLM TAF KOLM 161120Z 1612/1712 20007KT P6SM BKN045 OVC060
  FM161500 18007KT P6SM OVC050
  FM170000 21005KT P6SM OVC100
  FM170600 22003KT P6SM OVC050
  FM171000 20005KT P6SM OVC020
NE 29 nm 301' KGRF TAF KGRF 160500Z 1605/1711 14004KT 9999 BKN050 QNH3011INS
  BECMG 1609/1610 20005KT 9999 SCT040 BKN080 QNH3009INS
  BECMG 1617/1618 20010G18KT 9999 SCT030 QNH3001INS
  BECMG 1708/1709 20005KT 9999 BKN030 QNH2977INS TX17/1622Z TN10/1615Z
NE 34 nm 322' KTCM TAF KTCM 160500Z 1605/1711 20006KT 9999 OVC045 QNH3012INS
  BECMG 1611/1612 17005KT 9999 FEW060 BKN180 QNH3005INS
  BECMG 1617/1618 19010G15KT 9999 BKN100 OVC200 QNH3000INS
  BECMG 1710/1711 19006KT 9999 VCSH SCT015 OVC035 QNH2979INS TX18/1623Z TN08/1613Z
NW 42 nm 17' KHQM TAF KHQM 161120Z 1612/1712 17013KT P6SM OVC020
  FM161800 18015G25KT P6SM -RA BKN020 OVC040
  FM170200 18010KT P6SM OVC030
  FM170600 15007KT P6SM OVC015
SW 48 nm 14' KAST TAF KAST 160520Z 1606/1706 16006KT P6SM BKN070
  FM161000 16006KT P6SM BKN030
  FM162100 19011G19KT P6SM BKN050
  FM170000 19009KT P6SM OVC060
N 49 nm 444' KPWT TAF KPWT 161120Z 1612/1712 22003KT P6SM OVC035
  FM161600 19018KT P6SM SCT015 BKN040 OVC080
  FM162300 19012KT P6SM -RA BKN015 OVC030
  FM170300 20004KT P6SM OVC050
  FM171000 VRB02KT P6SM OVC015
NE 53 nm 432' KSEA TAF KSEA 161120Z 1612/1718 15005KT P6SM FEW040 FEW060 OVC100
  FM161600 19008KT P6SM SCT020 BKN050 OVC100
  FM162300 19007KT P6SM BKN070 OVC120
  FM170500 20006KT P6SM VCSH BKN050 OVC070
  FM171000 21003KT P6SM BKN025 OVC050
  FM171500 24003KT P6SM OVC025
NE 58 nm 21' KBFI TAF KBFI 161120Z 1612/1712 14006KT P6SM BKN070 OVC110
  FM161600 18008KT P6SM SCT025 BKN050 OVC100
  FM162300 17008KT P6SM BKN070 OVC120
  FM170300 16005KT P6SM VCSH BKN070 OVC080
  FM171000 19003KT P6SM BKN030 OVC050
S 67 nm 30' KPDX KPDX 160906Z 1609/1706 VRB03KT P6SM BKN040
  FM161700 12005KT P6SM SCT150
S 68 nm 207' KHIO TAF
  AMD KHIO 160904Z 1609/1706 VRB03KT 1/2SM FG OVC003
  FM161600 VRB03KT 3SM BR BKN003
  FM161800 VRB03KT P6SM SCT180
S 71 nm 38' KTTD TAF KTTD 160520Z 1606/1706 VRB03KT P6SM FEW250
N 79 nm 606' KPAE TAF KPAE 161120Z 1612/1712 15010KT P6SM -RA SCT040 BKN070 OVC090
  FM161600 19012KT P6SM SCT020 BKN050 OVC100
  FM162300 19015G20KT 6SM -RA BKN022 OVC040
  FM170300 16008KT P6SM OVC050
S 86 nm 199' KUAO KUAO 160913Z 1609/1706 00000KT 1SM BCFG SCT003
  FM161700 VRB03KT P6SM SCT200
  FM162100 20005KT P6SM FEW250
N 89 nm 291' KCLM TAF KCLM 161120Z 1612/1712 VRB04KT 4SM -RA BR FEW029 BKN100 BKN110
  FM161500 25003KT 3SM -RA BR OVC025
  FM170300 28004KT P6SM OVC020
  FM170900 30003KT P6SM OVC010
SE 98 nm 246' KDLS TAF KDLS 161120Z 1612/1712 12005KT P6SM FEW010 SCT200
  FM161300 12005KT P6SM SCT008
  FM161800 33005KT P6SM SCT200
  FM170900 VRB04KT P6SM BKN200

Shortcut to this page: http://wxbay.com.

Data may contain errors.